Time;durP1;ratioP1;P1;durP2;ratioP2;P2;SDS_P1;SDS_P2;PMS_P1;PMS_P2;Temp;Humidity;BMP_temperature;BMP_pressure;BME280_temperature;BME280_humidity;BME280_pressure;Samples;Min_cycle;Max_cycle;Signal;HPM_P1;HPM_P2
2021/09/05 00:01:17;;;;;;;57.72;28.45;;;14.30;99.90;;;;;;5007860;28;20645;-62
2021/09/05 00:03:43;;;;;;;58.78;29.73;;;14.30;99.90;;;;;;4992875;28;20120;-62
2021/09/05 00:06:09;;;;;;;56.15;28.65;;;14.30;99.90;;;;;;5006514;28;20095;-62
2021/09/05 00:08:34;;;;;;;59.67;31.48;;;14.20;99.90;;;;;;5008733;28;20467;-62
2021/09/05 00:11:00;;;;;;;58.63;31.42;;;14.20;99.90;;;;;;5006492;28;20033;-62
2021/09/05 00:13:25;;;;;;;59.35;29.98;;;14.20;99.90;;;;;;5008101;28;20034;-61
2021/09/05 00:15:51;;;;;;;60.60;30.80;;;14.20;99.90;;;;;;5011548;28;20076;-63
2021/09/05 00:18:16;;;;;;;63.03;31.88;;;14.20;99.90;;;;;;5007749;28;20054;-63
2021/09/05 00:20:42;;;;;;;68.25;32.63;;;14.10;99.90;;;;;;5006426;28;20755;-63
2021/09/05 00:23:09;;;;;;;65.80;31.35;;;14.10;99.90;;;;;;5008081;28;20033;-63
2021/09/05 00:25:35;;;;;;;71.35;32.80;;;14.10;99.90;;;;;;5011407;28;20026;-63
2021/09/05 00:28:01;;;;;;;64.13;33.20;;;14.00;99.90;;;;;;5009459;28;20033;-62
2021/09/05 00:30:26;;;;;;;59.90;30.45;;;14.00;99.90;;;;;;5007807;28;20489;-62
2021/09/05 00:32:52;;;;;;;57.58;29.63;;;14.00;99.90;;;;;;4991686;28;20347;-62
2021/09/05 00:35:18;;;;;;;52.85;28.27;;;14.10;99.90;;;;;;5005885;28;20033;-62
2021/09/05 00:37:43;;;;;;;55.92;29.33;;;14.00;99.90;;;;;;5010058;28;20401;-62
2021/09/05 00:40:09;;;;;;;63.22;31.85;;;14.00;99.90;;;;;;5007624;28;20444;-62
2021/09/05 00:42:35;;;;;;;61.50;31.73;;;13.90;99.90;;;;;;5012508;28;20504;-62
2021/09/05 00:45:01;;;;;;;56.65;29.70;;;13.90;99.90;;;;;;5007552;28;20038;-62
2021/09/05 00:47:26;;;;;;;67.38;30.45;;;13.90;99.90;;;;;;5008983;28;20076;-62
2021/09/05 00:49:52;;;;;;;63.67;32.72;;;13.90;99.90;;;;;;5011043;28;20504;-62
2021/09/05 00:52:20;;;;;;;61.28;32.10;;;13.90;99.90;;;;;;5005954;28;20112;-62
2021/09/05 00:54:47;;;;;;;71.40;33.45;;;13.90;99.90;;;;;;5003189;28;20038;-62
2021/09/05 00:57:14;;;;;;;69.05;34.70;;;13.90;99.90;;;;;;5007009;28;20022;-62
2021/09/05 00:59:41;;;;;;;71.70;34.22;;;13.80;99.90;;;;;;5010144;28;20493;-62
2021/09/05 01:02:07;;;;;;;68.32;34.17;;;13.80;99.90;;;;;;5006647;28;20030;-62
2021/09/05 01:04:33;;;;;;;72.78;32.58;;;13.80;99.90;;;;;;5005952;28;20110;-62
2021/09/05 01:06:59;;;;;;;67.97;34.08;;;13.80;99.90;;;;;;5006599;28;20157;-60
2021/09/05 01:09:26;;;;;;;67.22;33.30;;;13.70;99.90;;;;;;5008927;28;20025;-62
2021/09/05 01:11:52;;;;;;;69.05;33.85;;;13.70;99.90;;;;;;5011813;28;20029;-62
2021/09/05 01:14:18;;;;;;;73.15;36.30;;;13.60;99.90;;;;;;5005916;28;20075;-62
2021/09/05 01:16:44;;;;;;;75.97;37.28;;;13.60;99.90;;;;;;5006139;28;20038;-62
2021/09/05 01:19:15;;;;;;;76.03;34.17;;;13.60;99.90;;;;;;5007921;28;20029;-62
2021/09/05 01:21:43;;;;;;;73.00;34.55;;;13.60;99.90;;;;;;5005280;28;20490;-62
2021/09/05 01:24:10;;;;;;;72.65;33.78;;;13.60;99.90;;;;;;5002592;28;20034;-61
2021/09/05 01:26:38;;;;;;;62.83;33.65;;;13.70;99.90;;;;;;5007483;28;20030;-62
2021/09/05 01:29:05;;;;;;;61.10;33.45;;;13.70;99.90;;;;;;5006080;28;20022;-60
2021/09/05 01:31:44;;;;;;;63.45;34.22;;;13.60;99.90;;;;;;5009856;28;20030;-62
2021/09/05 01:34:11;;;;;;;66.68;34.95;;;13.60;99.90;;;;;;5007681;28;20049;-62
2021/09/05 01:36:39;;;;;;;64.13;34.03;;;13.60;99.90;;;;;;5008894;28;20036;-61
2021/09/05 01:39:06;;;;;;;65.97;35.95;;;13.50;99.90;;;;;;5005070;28;20096;-61
2021/09/05 01:41:32;;;;;;;65.90;36.20;;;13.50;99.90;;;;;;5007061;28;20056;-62
2021/09/05 01:43:59;;;;;;;68.35;36.28;;;13.50;99.90;;;;;;5005067;28;20030;-62
2021/09/05 01:46:25;;;;;;;77.15;38.13;;;13.60;99.90;;;;;;5009655;28;20104;-61
2021/09/05 01:48:51;;;;;;;66.53;35.47;;;13.60;99.90;;;;;;5004035;28;20133;-62
2021/09/05 01:51:16;;;;;;;72.50;34.67;;;13.60;99.90;;;;;;5009762;28;20048;-62
2021/09/05 01:53:42;;;;;;;76.30;36.95;;;13.50;99.90;;;;;;5008208;28;20120;-62
2021/09/05 01:56:07;;;;;;;70.07;35.35;;;13.50;99.90;;;;;;5006630;28;20034;-61
2021/09/05 01:58:33;;;;;;;60.22;33.65;;;13.50;99.90;;;;;;5009816;28;20397;-62
2021/09/05 02:00:58;;;;;;;68.75;37.20;;;13.50;99.90;;;;;;5007769;28;20037;-62
2021/09/05 02:03:24;;;;;;;68.38;35.88;;;13.40;99.90;;;;;;5008972;28;20040;-62
2021/09/05 02:05:49;;;;;;;73.22;34.38;;;13.40;99.90;;;;;;5010643;28;20041;-62
2021/09/05 02:08:15;;;;;;;66.95;32.05;;;13.30;99.90;;;;;;5004641;28;20421;-61
2021/09/05 02:10:42;;;;;;;68.20;33.63;;;13.40;99.90;;;;;;5008657;28;20141;-62
2021/09/05 02:13:07;;;;;;;65.38;34.03;;;13.40;99.90;;;;;;5006550;28;20101;-62
2021/09/05 02:15:33;;;;;;;70.65;34.75;;;13.30;99.90;;;;;;5011048;28;20045;-62
2021/09/05 02:17:58;;;;;;;67.90;35.15;;;13.30;99.90;;;;;;5006463;28;20066;-62
2021/09/05 02:20:24;;;;;;;74.47;35.35;;;13.30;99.90;;;;;;5006394;28;20036;-62
2021/09/05 02:22:49;;;;;;;72.55;35.08;;;13.30;99.90;;;;;;5005308;28;20033;-62
2021/09/05 02:25:15;;;;;;;66.65;34.63;;;13.30;99.90;;;;;;5005094;28;20084;-62
2021/09/05 02:27:41;;;;;;;67.38;34.13;;;13.30;99.90;;;;;;5007473;28;20030;-62
2021/09/05 02:30:09;;;;;;;66.47;34.08;;;13.40;99.90;;;;;;5006921;28;20049;-62
2021/09/05 02:32:35;;;;;;;67.28;32.60;;;13.30;99.90;;;;;;5008956;28;20022;-62
2021/09/05 02:35:01;;;;;;;64.65;32.50;;;13.30;99.90;;;;;;5006072;28;20026;-60
2021/09/05 02:37:26;;;;;;;64.72;32.60;;;13.40;99.90;;;;;;5006447;28;20062;-62
2021/09/05 02:39:52;;;;;;;60.22;31.25;;;13.40;99.90;;;;;;5004123;28;20046;-62
2021/09/05 02:42:17;;;;;;;67.20;32.22;;;13.30;99.90;;;;;;5007226;28;20022;-62
2021/09/05 02:44:43;;;;;;;63.58;32.75;;;13.30;99.90;;;;;;5000067;28;20036;-62
2021/09/05 02:47:09;;;;;;;62.17;31.27;;;13.20;99.90;;;;;;5008900;28;20110;-62
2021/09/05 02:49:34;;;;;;;60.60;30.88;;;13.20;99.90;;;;;;5002660;28;20033;-62
2021/09/05 02:52:00;;;;;;;57.58;30.95;;;13.20;99.90;;;;;;5006029;28;20064;-62
2021/09/05 02:54:25;;;;;;;60.17;32.38;;;13.10;99.90;;;;;;5006492;28;20490;-61
2021/09/05 02:56:51;;;;;;;62.22;32.25;;;13.10;99.90;;;;;;5007395;28;20116;-61
2021/09/05 02:59:16;;;;;;;68.43;32.00;;;13.10;99.90;;;;;;5010475;28;20030;-62
2021/09/05 03:04:10;;;;;;;59.22;30.73;;;13.10;99.90;;;;;;5040238;23;20072;-56
2021/09/05 03:06:36;;;;;;;57.17;30.67;;;13.10;99.90;;;;;;5028764;28;20037;-54
2021/09/05 03:09:02;;;;;;;63.90;31.63;;;13.10;99.90;;;;;;5026823;28;20017;-58
2021/09/05 03:11:28;;;;;;;67.10;31.45;;;13.00;99.90;;;;;;5024704;28;20049;-58
2021/09/05 03:13:53;;;;;;;62.85;32.70;;;13.00;99.90;;;;;;5016054;28;20029;-54
2021/09/05 03:16:19;;;;;;;60.45;31.42;;;13.00;99.90;;;;;;5013034;28;20458;-59
2021/09/05 03:18:44;;;;;;;68.20;33.92;;;13.00;99.90;;;;;;5011568;28;20032;-57
2021/09/05 03:21:10;;;;;;;61.05;33.33;;;12.90;99.90;;;;;;5001924;28;20029;-58
2021/09/05 03:23:36;;;;;;;65.28;32.13;;;12.90;99.90;;;;;;5014171;28;20139;-57
2021/09/05 03:26:01;;;;;;;64.47;31.88;;;13.00;99.90;;;;;;5012867;28;20026;-57
2021/09/05 03:28:27;;;;;;;63.25;31.98;;;13.00;99.90;;;;;;5010958;28;20034;-57
2021/09/05 03:30:52;;;;;;;61.65;30.95;;;13.00;99.90;;;;;;5010779;28;20058;-57
2021/09/05 03:33:18;;;;;;;55.05;29.98;;;13.00;99.90;;;;;;5010531;28;20029;-56
2021/09/05 03:35:43;;;;;;;56.55;29.73;;;13.00;99.90;;;;;;5011240;28;20033;-57
2021/09/05 03:38:09;;;;;;;55.58;28.58;;;13.10;99.90;;;;;;5011316;28;20022;-57
2021/09/05 03:40:35;;;;;;;54.22;29.05;;;13.10;99.90;;;;;;5018141;28;20392;-57
2021/09/05 03:43:00;;;;;;;52.72;28.25;;;13.10;99.90;;;;;;5010695;28;20025;-52
2021/09/05 03:45:26;;;;;;;64.18;30.70;;;13.00;99.90;;;;;;5018067;28;20033;-53
2021/09/05 03:47:51;;;;;;;61.72;31.33;;;13.00;99.90;;;;;;5010488;28;20033;-59
2021/09/05 03:50:17;;;;;;;57.83;30.95;;;13.00;99.90;;;;;;5010384;28;20030;-56
2021/09/05 03:52:42;;;;;;;68.90;33.70;;;12.90;99.90;;;;;;5012547;28;20041;-55
2021/09/05 03:55:08;;;;;;;72.80;33.97;;;12.90;99.90;;;;;;5008743;28;20045;-57
2021/09/05 03:57:34;;;;;;;69.20;32.58;;;12.90;99.90;;;;;;5008167;28;20038;-59
2021/09/05 04:00:00;;;;;;;58.80;30.40;;;12.90;99.90;;;;;;5011959;28;20586;-58
2021/09/05 04:02:25;;;;;;;59.10;30.25;;;13.00;99.90;;;;;;5011987;28;20029;-54
2021/09/05 04:04:51;;;;;;;60.10;28.90;;;13.00;99.90;;;;;;5009864;28;20103;-54
2021/09/05 04:07:19;;;;;;;56.88;28.80;;;13.00;99.90;;;;;;5013440;28;20037;-58
2021/09/05 04:12:29;;;;;;;59.80;30.80;;;13.10;99.90;;;;;;5008355;28;20087;-57
2021/09/05 04:14:55;;;;;;;61.00;31.48;;;13.00;99.90;;;;;;5011327;28;20117;-61
2021/09/05 04:17:20;;;;;;;66.28;32.50;;;12.90;99.90;;;;;;5009130;28;20172;-53
2021/09/05 04:19:46;;;;;;;62.85;32.67;;;12.90;99.90;;;;;;5006097;28;20164;-55
2021/09/05 04:22:11;;;;;;;65.60;32.50;;;12.90;99.90;;;;;;5010895;28;20048;-55
2021/09/05 04:24:37;;;;;;;62.40;32.58;;;12.90;99.90;;;;;;5006732;28;20536;-59
2021/09/05 04:27:03;;;;;;;64.43;31.38;;;13.00;99.90;;;;;;5011180;28;20040;-57
2021/09/05 04:29:29;;;;;;;66.38;32.65;;;12.90;99.90;;;;;;5009777;28;20022;-53
2021/09/05 04:31:54;;;;;;;61.97;32.05;;;12.80;99.90;;;;;;5008725;28;20040;-54
2021/09/05 04:34:20;;;;;;;71.75;31.83;;;12.80;99.90;;;;;;5010254;28;20026;-54
2021/09/05 04:36:45;;;;;;;66.75;33.05;;;12.80;99.90;;;;;;5014064;28;20038;-55
2021/09/05 04:39:11;;;;;;;68.93;33.67;;;12.80;99.90;;;;;;5011590;28;20029;-55
2021/09/05 04:41:36;;;;;;;65.88;31.40;;;12.70;99.90;;;;;;5009165;28;20036;-53
2021/09/05 04:44:02;;;;;;;60.55;32.83;;;12.70;99.90;;;;;;5015040;28;20109;-59
2021/09/05 04:46:28;;;;;;;70.30;33.28;;;12.70;99.90;;;;;;5012524;28;20072;-59
2021/09/05 04:48:53;;;;;;;74.43;33.95;;;12.70;99.90;;;;;;5006313;28;20034;-54
2021/09/05 04:51:19;;;;;;;69.55;33.33;;;12.60;99.90;;;;;;5005903;28;20026;-58
2021/09/05 04:53:44;;;;;;;65.68;32.22;;;12.70;99.90;;;;;;5010862;28;20072;-58
2021/09/05 04:56:10;;;;;;;63.28;31.17;;;12.60;99.90;;;;;;5011522;28;20099;-57
2021/09/05 04:58:35;;;;;;;67.65;33.15;;;12.50;99.90;;;;;;5008660;28;20365;-58
2021/09/05 05:01:01;;;;;;;67.25;32.03;;;12.60;99.90;;;;;;5012056;28;20033;-58
2021/09/05 05:03:26;;;;;;;59.78;31.98;;;12.60;99.90;;;;;;5007380;28;20452;-53
2021/09/05 05:05:52;;;;;;;58.22;29.85;;;12.60;99.90;;;;;;5009385;28;20388;-58
2021/09/05 05:08:17;;;;;;;65.78;31.08;;;12.70;99.90;;;;;;5011535;28;20025;-55
2021/09/05 05:10:46;;;;;;;52.55;29.05;;;12.70;99.90;;;;;;5009080;28;20704;-57
2021/09/05 05:13:11;;;;;;;56.20;29.40;;;12.70;99.90;;;;;;5010373;28;20022;-60
2021/09/05 05:15:37;;;;;;;55.22;28.98;;;12.80;99.90;;;;;;5007371;28;20038;-58
2021/09/05 05:18:02;;;;;;;53.28;28.05;;;12.80;99.90;;;;;;5006825;28;20042;-57
2021/09/05 05:20:29;;;;;;;50.25;26.23;;;12.90;99.90;;;;;;5009366;28;20116;-60
2021/09/05 05:22:55;;;;;;;46.30;25.75;;;12.90;99.90;;;;;;5011266;28;20045;-58
2021/09/05 05:25:20;;;;;;;46.85;24.70;;;13.00;99.90;;;;;;5007246;28;20034;-59
2021/09/05 05:27:46;;;;;;;45.45;26.33;;;13.00;99.90;;;;;;5011949;28;20496;-58
2021/09/05 05:30:12;;;;;;;47.97;27.58;;;13.00;99.90;;;;;;5010965;28;20588;-59
2021/09/05 05:32:38;;;;;;;46.13;26.17;;;13.10;99.90;;;;;;5011959;28;20029;-60
2021/09/05 05:35:04;;;;;;;48.25;26.92;;;13.10;99.90;;;;;;5012652;28;20021;-56
2021/09/05 05:37:30;;;;;;;40.15;24.48;;;13.10;99.90;;;;;;5012811;28;20057;-59
2021/09/05 05:39:55;;;;;;;47.75;26.20;;;13.20;99.90;;;;;;5010217;28;20068;-56
2021/09/05 05:42:21;;;;;;;51.15;28.60;;;13.20;99.90;;;;;;5012591;28;20038;-59
2021/09/05 05:44:46;;;;;;;51.47;28.83;;;13.20;99.90;;;;;;5007426;28;20038;-57
2021/09/05 05:47:12;;;;;;;47.45;26.88;;;13.20;99.90;;;;;;5005889;28;20029;-56
2021/09/05 05:49:40;;;;;;;49.28;26.88;;;13.20;99.90;;;;;;5006345;28;20477;-56
2021/09/05 05:52:06;;;;;;;45.72;27.33;;;13.20;99.90;;;;;;5008061;28;20045;-57
2021/09/05 05:54:31;;;;;;;49.78;27.70;;;13.30;99.90;;;;;;5009886;28;20394;-66
2021/09/05 05:56:57;;;;;;;46.40;26.60;;;13.30;99.90;;;;;;5012590;28;20041;-56
2021/09/05 05:59:22;;;;;;;53.15;30.40;;;13.30;99.90;;;;;;5008209;28;20037;-57
2021/09/05 06:01:48;;;;;;;52.72;27.98;;;13.30;99.90;;;;;;5008054;28;20061;-56
2021/09/05 06:04:13;;;;;;;45.55;24.90;;;13.40;99.90;;;;;;4998317;28;20041;-53
2021/09/05 06:06:39;;;;;;;46.88;25.88;;;13.40;99.90;;;;;;5008215;28;20030;-56
2021/09/05 06:09:05;;;;;;;43.97;25.65;;;13.50;99.90;;;;;;5000422;28;20030;-57
2021/09/05 06:11:31;;;;;;;40.33;24.10;;;13.50;99.90;;;;;;5007381;28;20093;-59
2021/09/05 06:13:56;;;;;;;46.15;24.20;;;13.60;99.90;;;;;;5008708;28;20153;-59
2021/09/05 06:16:22;;;;;;;45.05;25.20;;;13.70;99.90;;;;;;5002110;28;20041;-58
2021/09/05 06:18:48;;;;;;;48.53;27.20;;;13.70;99.90;;;;;;5007389;28;20029;-58
2021/09/05 06:21:13;;;;;;;45.38;26.90;;;13.70;99.90;;;;;;5006744;28;20033;-60
2021/09/05 06:23:40;;;;;;;46.25;26.63;;;13.80;99.90;;;;;;5007408;28;20049;-60
2021/09/05 06:26:06;;;;;;;48.10;26.17;;;13.90;99.90;;;;;;5009023;28;20040;-57
2021/09/05 06:28:31;;;;;;;49.03;26.17;;;13.90;99.90;;;;;;4997836;28;20030;-60
2021/09/05 06:30:57;;;;;;;47.45;26.15;;;14.00;99.90;;;;;;5007645;28;20043;-58
2021/09/05 06:33:22;;;;;;;46.42;27.13;;;14.00;99.90;;;;;;5003416;28;20038;-61
2021/09/05 06:35:48;;;;;;;47.63;27.27;;;14.10;99.90;;;;;;5006808;28;20030;-59
2021/09/05 06:38:14;;;;;;;50.53;28.17;;;14.10;99.90;;;;;;5007846;28;20394;-59
2021/09/05 06:40:39;;;;;;;47.95;26.58;;;14.20;99.90;;;;;;5008253;28;20056;-57
2021/09/05 06:43:05;;;;;;;49.45;29.15;;;14.30;99.90;;;;;;5007626;28;20025;-57
2021/09/05 06:45:31;;;;;;;52.97;26.35;;;14.40;99.90;;;;;;5006928;28;20382;-59
2021/09/05 06:47:58;;;;;;;46.53;26.98;;;14.40;99.90;;;;;;4994391;28;20037;-57
2021/09/05 06:50:23;;;;;;;43.90;26.05;;;14.50;99.90;;;;;;5004772;28;20038;-57
2021/09/05 06:52:49;;;;;;;43.38;26.58;;;14.50;99.90;;;;;;5009780;28;20022;-58
2021/09/05 06:55:14;;;;;;;43.42;24.73;;;14.60;99.90;;;;;;5006778;28;20564;-56
2021/09/05 06:57:40;;;;;;;42.75;26.33;;;14.70;99.90;;;;;;5010699;28;20116;-53
2021/09/05 07:00:06;;;;;;;45.35;25.90;;;14.80;99.90;;;;;;5010082;28;20034;-60
2021/09/05 07:02:32;;;;;;;40.70;25.50;;;14.80;99.90;;;;;;5003340;28;20062;-60
2021/09/05 07:04:57;;;;;;;47.38;27.30;;;14.90;99.90;;;;;;5007058;28;20077;-57
2021/09/05 07:07:23;;;;;;;45.30;26.38;;;15.00;99.90;;;;;;5007152;28;20026;-56
2021/09/05 07:09:49;;;;;;;39.00;25.02;;;15.10;99.90;;;;;;5003463;28;20037;-57
2021/09/05 07:12:14;;;;;;;36.53;23.20;;;15.10;99.90;;;;;;5006749;28;20046;-56
2021/09/05 07:14:40;;;;;;;40.42;23.90;;;15.30;99.90;;;;;;5006654;28;20018;-54
2021/09/05 07:17:05;;;;;;;41.10;24.08;;;15.30;99.90;;;;;;5009256;28;20037;-55
2021/09/05 07:19:31;;;;;;;38.30;22.35;;;15.40;99.90;;;;;;5003566;28;20033;-56
2021/09/05 07:21:57;;;;;;;39.28;22.08;;;15.50;99.90;;;;;;5007994;28;20037;-57
2021/09/05 07:24:22;;;;;;;40.85;23.38;;;15.50;99.90;;;;;;5008147;28;20026;-56
2021/09/05 07:26:48;;;;;;;36.40;20.70;;;15.60;99.90;;;;;;5007550;28;20030;-58
2021/09/05 07:29:13;;;;;;;39.13;20.92;;;15.70;99.90;;;;;;5002681;28;20036;-58
2021/09/05 07:31:39;;;;;;;35.97;20.10;;;15.80;99.90;;;;;;5001548;28;20116;-58
2021/09/05 07:34:04;;;;;;;35.35;21.08;;;15.90;99.90;;;;;;5008173;28;20069;-57
2021/09/05 07:36:33;;;;;;;31.83;19.80;;;15.90;99.90;;;;;;5009479;28;20080;-56
2021/09/05 07:38:58;;;;;;;33.65;19.65;;;15.90;99.90;;;;;;5003347;28;20038;-60
2021/09/05 07:41:24;;;;;;;33.13;19.73;;;16.00;99.90;;;;;;5011239;28;20026;-57
2021/09/05 07:43:49;;;;;;;38.95;21.90;;;16.10;99.90;;;;;;5013621;28;20084;-57
2021/09/05 07:46:15;;;;;;;40.53;23.08;;;16.20;99.90;;;;;;5003264;28;20034;-59
2021/09/05 07:48:40;;;;;;;36.30;21.27;;;16.30;99.90;;;;;;5005958;28;20493;-60
2021/09/05 07:51:06;;;;;;;32.83;19.17;;;16.40;99.90;;;;;;5006118;28;20501;-57
2021/09/05 07:53:32;;;;;;;41.13;21.38;;;16.50;99.90;;;;;;5005075;28;20485;-56
2021/09/05 07:55:57;;;;;;;36.38;21.15;;;16.60;99.90;;;;;;5004093;28;20034;-59
2021/09/05 07:58:25;;;;;;;36.20;20.73;;;16.70;99.90;;;;;;5017089;28;20025;-57
2021/09/05 08:00:50;;;;;;;33.33;19.85;;;16.80;99.90;;;;;;5008091;28;20030;-56
2021/09/05 08:03:16;;;;;;;29.85;18.15;;;16.90;99.90;;;;;;5007073;28;20030;-56
2021/09/05 08:05:41;;;;;;;42.15;21.13;;;17.00;99.90;;;;;;5014037;28;20030;-57
2021/09/05 08:08:07;;;;;;;46.00;25.42;;;17.10;99.90;;;;;;5009780;28;20026;-57
2021/09/05 08:10:33;;;;;;;41.10;21.77;;;17.10;99.90;;;;;;5009081;28;20413;-62
2021/09/05 08:12:58;;;;;;;31.67;18.95;;;17.20;99.90;;;;;;5004961;28;20401;-62
2021/09/05 08:15:24;;;;;;;34.35;19.25;;;17.30;99.90;;;;;;5007009;28;20116;-61
2021/09/05 08:17:50;;;;;;;30.42;18.55;;;17.40;99.90;;;;;;5009893;28;20030;-63
2021/09/05 08:20:15;;;;;;;29.75;18.25;;;17.50;99.90;;;;;;5005279;28;20034;-62
2021/09/05 08:22:41;;;;;;;33.35;18.80;;;17.60;99.90;;;;;;5005442;28;20030;-62
2021/09/05 08:25:07;;;;;;;33.30;19.33;;;17.70;99.90;;;;;;5007804;28;20034;-61
2021/09/05 08:27:33;;;;;;;31.85;19.50;;;17.80;99.90;;;;;;5013748;28;20025;-63
2021/09/05 08:29:58;;;;;;;32.08;18.80;;;17.90;99.90;;;;;;5007210;28;20030;-61
2021/09/05 08:32:24;;;;;;;30.77;18.95;;;18.00;99.90;;;;;;5007419;28;20025;-61
2021/09/05 08:34:50;;;;;;;29.52;18.33;;;18.10;99.90;;;;;;5011418;28;20085;-61
2021/09/05 08:37:16;;;;;;;31.20;18.77;;;18.20;99.90;;;;;;5011290;28;20042;-59
2021/09/05 08:39:42;;;;;;;32.65;18.33;;;18.30;99.90;;;;;;5010447;28;20060;-62
2021/09/05 08:42:07;;;;;;;27.38;17.67;;;18.40;99.90;;;;;;5006288;28;20029;-61
2021/09/05 08:44:33;;;;;;;30.55;18.25;;;18.50;99.90;;;;;;5010477;28;20116;-62
2021/09/05 08:46:59;;;;;;;32.92;18.80;;;18.60;99.90;;;;;;5009010;28;20037;-63
2021/09/05 08:49:26;;;;;;;28.65;17.90;;;18.70;99.90;;;;;;5009568;28;20441;-63
2021/09/05 08:51:55;;;;;;;31.88;19.38;;;18.80;99.90;;;;;;5012153;28;20029;-63
2021/09/05 08:54:21;;;;;;;25.67;16.90;;;18.90;99.90;;;;;;5009572;28;20036;-64
2021/09/05 08:56:48;;;;;;;26.73;17.10;;;19.00;99.90;;;;;;5004996;28;20025;-64
2021/09/05 08:59:14;;;;;;;25.42;16.30;;;19.10;99.90;;;;;;5004961;28;20056;-61
2021/09/05 09:01:54;;;;;;;30.20;17.38;;;19.20;99.90;;;;;;5012783;28;20053;-62
2021/09/05 09:04:20;;;;;;;29.60;16.88;;;19.40;99.90;;;;;;5028279;23;20054;-64
2021/09/05 09:06:46;;;;;;;29.88;17.50;;;19.50;99.90;;;;;;5010427;28;20042;-64
2021/09/05 09:09:12;;;;;;;26.50;17.95;;;19.60;99.90;;;;;;5012274;28;20500;-65
2021/09/05 09:11:48;;;;;;;27.75;18.55;;;19.70;99.90;;;;;;5011314;28;20056;-65
2021/09/05 09:14:14;;;;;;;28.13;17.63;;;19.90;99.90;;;;;;5010182;28;20514;-64
2021/09/05 09:16:39;;;;;;;30.73;17.75;;;20.00;99.90;;;;;;5011842;28;20026;-65
2021/09/05 09:19:05;;;;;;;29.90;17.35;;;20.10;99.90;;;;;;5006893;28;20441;-64
2021/09/05 09:21:38;;;;;;;27.90;17.38;;;20.20;99.90;;;;;;5010974;28;20037;-65
2021/09/05 09:24:17;;;;;;;31.50;19.37;;;20.40;99.90;;;;;;5008354;28;20517;-63
2021/09/05 09:27:05;;;;;;;31.67;18.30;;;20.40;99.90;;;;;;5006394;28;20398;-64
2021/09/05 09:29:32;;;;;;;28.13;17.50;;;20.70;99.90;;;;;;5011574;28;20022;-65
2021/09/05 09:32:16;;;;;;;26.25;17.70;;;20.80;99.90;;;;;;5013658;28;20049;-65
2021/09/05 09:34:48;;;;;;;25.88;15.95;;;21.00;99.90;;;;;;5011685;28;20428;-65
2021/09/05 09:37:18;;;;;;;23.08;15.43;;;21.10;99.90;;;;;;5007786;28;20504;-65
2021/09/05 09:39:47;;;;;;;28.92;17.52;;;21.20;99.90;;;;;;5009322;28;20037;-63
2021/09/05 09:42:48;;;;;;;23.90;15.43;;;21.30;99.90;;;;;;5010392;28;20045;-62
2021/09/05 09:45:18;;;;;;;28.08;17.85;;;21.40;99.90;;;;;;4934251;29;20515;-61
2021/09/05 09:47:51;;;;;;;27.25;16.60;;;21.40;99.90;;;;;;4973819;28;20045;-63
2021/09/05 09:50:21;;;;;;;29.83;16.83;;;21.40;99.90;;;;;;5003016;28;20018;-62
2021/09/05 09:52:48;;;;;;;29.63;17.67;;;21.50;99.90;;;;;;5006364;28;20029;-63
2021/09/05 09:55:13;;;;;;;29.13;15.95;;;21.70;99.90;;;;;;5005871;28;20571;-61
2021/09/05 09:57:40;;;;;;;26.98;16.70;;;21.90;99.90;;;;;;5004455;28;20030;-62
2021/09/05 10:00:06;;;;;;;21.90;14.82;;;22.00;99.90;;;;;;5003851;28;20099;-62
2021/09/05 10:02:37;;;;;;;27.05;15.52;;;22.20;99.90;;;;;;5008996;28;20037;-62
2021/09/05 10:05:03;;;;;;;26.65;16.48;;;22.40;99.90;;;;;;5005515;28;20513;-62
2021/09/05 10:07:30;;;;;;;22.45;15.10;;;22.40;99.90;;;;;;5008143;28;20448;-62
2021/09/05 10:09:59;;;;;;;23.15;15.68;;;22.50;99.90;;;;;;5006128;28;20847;-62
2021/09/05 10:12:24;;;;;;;20.92;13.95;;;22.60;99.90;;;;;;5006434;28;20707;-62
2021/09/05 10:14:52;;;;;;;19.27;13.75;;;22.70;99.90;;;;;;5008224;28;20083;-62
2021/09/05 10:17:20;;;;;;;24.88;14.45;;;23.00;99.90;;;;;;5007239;28;20156;-63
2021/09/05 10:19:47;;;;;;;24.17;15.65;;;23.10;99.90;;;;;;4971731;28;20038;-63
2021/09/05 10:22:15;;;;;;;19.90;13.27;;;23.20;99.90;;;;;;5006702;28;20107;-63
2021/09/05 10:24:52;;;;;;;19.48;13.90;;;23.30;99.90;;;;;;5005958;28;20517;-62
2021/09/05 10:27:36;;;;;;;21.17;13.88;;;23.50;99.90;;;;;;5007897;28;20191;-63
2021/09/05 10:30:10;;;;;;;23.40;13.48;;;23.70;99.90;;;;;;5005786;28;20028;-62
2021/09/05 10:32:53;;;;;;;18.45;15.05;;;24.00;99.90;;;;;;5009300;28;20024;-63
2021/09/05 10:35:45;;;;;;;24.90;13.32;;;24.10;99.90;;;;;;5005803;28;20724;-63
2021/09/05 10:38:10;;;;;;;17.92;12.75;;;24.40;99.90;;;;;;5009517;28;20397;-62
2021/09/05 10:41:22;;;;;;;22.92;14.43;;;24.50;99.90;;;;;;5005901;28;20029;-63
2021/09/05 10:43:47;;;;;;;25.30;13.40;;;24.80;99.90;;;;;;4967628;28;20091;-62
2021/09/05 10:46:17;;;;;;;18.48;13.38;;;24.60;99.90;;;;;;5005431;28;20045;-63
2021/09/05 10:48:57;;;;;;;18.92;12.85;;;24.70;99.90;;;;;;5006198;28;20033;-63
2021/09/05 10:51:28;;;;;;;17.35;11.95;;;24.80;99.90;;;;;;5009510;28;20030;-63
2021/09/05 10:53:56;;;;;;;22.50;13.10;;;24.70;99.90;;;;;;5009505;28;20524;-61
2021/09/05 10:56:23;;;;;;;22.45;13.98;;;24.80;99.90;;;;;;5009468;28;20026;-63
2021/09/05 10:58:54;;;;;;;22.23;13.88;;;24.60;99.90;;;;;;5004021;28;20022;-62
2021/09/05 11:01:22;;;;;;;18.10;12.25;;;24.70;99.90;;;;;;4990212;28;20033;-62
2021/09/05 11:04:15;;;;;;;18.40;13.13;;;24.80;99.90;;;;;;5008784;28;20060;-62
2021/09/05 11:06:46;;;;;;;18.98;11.93;;;24.90;99.90;;;;;;5006726;28;20397;-61
2021/09/05 11:09:17;;;;;;;19.88;13.00;;;25.00;99.90;;;;;;5007975;28;20108;-62
2021/09/05 11:12:03;;;;;;;15.90;11.27;;;24.90;99.90;;;;;;5006532;28;20022;-63
2021/09/05 11:14:37;;;;;;;18.20;12.38;;;25.20;99.90;;;;;;5004267;28;20034;-63
2021/09/05 11:17:17;;;;;;;18.60;12.70;;;25.20;99.90;;;;;;5003279;28;20029;-62
2021/09/05 11:19:48;;;;;;;17.75;12.43;;;25.50;99.90;;;;;;5002846;28;20030;-62
2021/09/05 11:22:19;;;;;;;16.98;11.35;;;25.70;99.90;;;;;;4984981;28;20030;-63
2021/09/05 11:24:46;;;;;;;18.15;11.75;;;25.80;99.90;;;;;;5009252;28;20034;-63
2021/09/05 11:27:14;;;;;;;15.80;11.65;;;25.70;99.90;;;;;;5009344;28;20041;-63
2021/09/05 11:29:40;;;;;;;15.02;10.77;;;25.60;99.90;;;;;;5007733;28;20105;-63
2021/09/05 11:32:08;;;;;;;17.35;11.95;;;25.80;99.90;;;;;;5008433;28;20040;-63
2021/09/05 11:34:35;;;;;;;20.60;12.07;;;26.00;99.90;;;;;;5008143;28;20030;-61
2021/09/05 11:37:02;;;;;;;16.25;11.02;;;25.90;99.90;;;;;;5010088;28;20045;-61
2021/09/05 11:39:27;;;;;;;15.65;10.88;;;26.10;99.90;;;;;;5007223;28;20033;-62
2021/09/05 11:41:59;;;;;;;15.65;10.52;;;26.30;99.90;;;;;;5008928;28;20034;-62
2021/09/05 11:44:31;;;;;;;14.38;10.43;;;26.40;99.90;;;;;;5006801;28;20871;-62
2021/09/05 11:47:09;;;;;;;17.05;10.35;;;26.50;99.90;;;;;;5005909;28;20026;-63
2021/09/05 11:49:36;;;;;;;12.48;10.25;;;26.20;99.90;;;;;;5008714;28;20042;-63
2021/09/05 11:52:02;;;;;;;13.90;9.73;;;26.20;99.90;;;;;;4992312;28;20041;-62
2021/09/05 11:54:28;;;;;;;17.10;9.88;;;26.30;99.90;;;;;;5003120;28;20026;-63
2021/09/05 11:56:54;;;;;;;11.80;9.63;;;26.30;99.90;;;;;;5005388;28;21190;-63
2021/09/05 11:59:20;;;;;;;12.63;9.40;;;26.50;99.90;;;;;;5003352;28;20053;-63
2021/09/05 12:01:48;;;;;;;15.00;10.25;;;26.50;99.90;;;;;;5005140;28;20073;-63
2021/09/05 12:04:17;;;;;;;14.98;10.52;;;26.80;99.90;;;;;;5005347;28;20073;-63
2021/09/05 12:06:43;;;;;;;13.95;9.90;;;26.80;99.90;;;;;;5007213;28;20058;-63
2021/09/05 12:09:09;;;;;;;13.50;9.10;;;26.60;99.90;;;;;;4988711;28;20029;-62
2021/09/05 12:11:59;;;;;;;11.57;8.82;;;26.80;99.90;;;;;;5005790;28;20053;-63
2021/09/05 12:14:33;;;;;;;12.48;9.25;;;26.70;99.90;;;;;;5004976;28;20434;-63
2021/09/05 12:17:13;;;;;;;;;;;26.80;99.90;;;;;;5006393;28;20033;-63
2021/09/05 12:19:57;;;;;;;12.52;9.25;;;26.70;99.90;;;;;;5007131;28;20297;-62
2021/09/05 12:22:24;;;;;;;;;;;26.80;99.90;;;;;;5006370;28;20032;-63
2021/09/05 12:24:57;;;;;;;11.55;8.63;;;26.90;99.90;;;;;;5006448;28;20011;-63
2021/09/05 12:27:23;;;;;;;12.93;8.77;;;27.00;99.90;;;;;;5003160;28;20113;-63
2021/09/05 12:29:49;;;;;;;14.77;10.20;;;27.20;99.90;;;;;;4989792;28;20445;-59
2021/09/05 12:32:15;;;;;;;13.85;8.95;;;27.10;99.90;;;;;;5008511;28;20025;-61
2021/09/05 12:34:45;;;;;;;12.63;9.50;;;27.10;99.90;;;;;;4991220;28;20541;-58